Time;durP1;ratioP1;P1;durP2;ratioP2;P2;SDS_P1;SDS_P2;PMS_P1;PMS_P2;Temp;Humidity;BMP_temperature;BMP_pressure;BME280_temperature;BME280_humidity;BME280_pressure;Samples;Min_cycle;Max_cycle;Signal;HPM_P1;HPM_P2
2022/07/16 00:02:57;;;;;;;6.10;3.20;;;15.50;99.90;;;;;;5073585;28;20475;-64
2022/07/16 00:05:23;;;;;;;6.32;2.60;;;15.50;99.90;;;;;;5073666;28;20047;-64
2022/07/16 00:07:49;;;;;;;4.45;2.78;;;15.50;99.90;;;;;;5073793;28;20044;-63
2022/07/16 00:10:14;;;;;;;5.38;2.58;;;15.50;99.90;;;;;;5073611;28;20040;-64
2022/07/16 00:12:40;;;;;;;5.97;3.00;;;15.60;99.90;;;;;;5073701;28;20040;-63
2022/07/16 00:15:07;;;;;;;8.65;2.90;;;15.60;99.90;;;;;;5073643;28;20445;-63
2022/07/16 00:17:33;;;;;;;4.82;2.95;;;15.70;99.90;;;;;;5073642;28;20457;-64
2022/07/16 00:19:58;;;;;;;6.32;2.33;;;15.70;99.90;;;;;;5073608;28;20086;-64
2022/07/16 00:22:24;;;;;;;4.55;2.85;;;15.70;99.90;;;;;;5073489;28;20082;-64
2022/07/16 00:24:50;;;;;;;3.00;2.70;;;15.70;99.90;;;;;;5073234;28;20052;-64
2022/07/16 00:27:15;;;;;;;8.38;2.55;;;15.80;99.90;;;;;;5073564;28;20050;-65
2022/07/16 00:29:41;;;;;;;9.50;2.75;;;15.80;99.90;;;;;;5073512;28;20439;-64
2022/07/16 00:32:07;;;;;;;4.40;2.60;;;15.90;99.90;;;;;;5073524;28;20036;-63
2022/07/16 00:34:33;;;;;;;4.28;2.75;;;15.90;99.90;;;;;;5073452;28;20387;-63
2022/07/16 00:36:59;;;;;;;5.35;2.53;;;16.00;99.90;;;;;;5073519;28;20036;-63
2022/07/16 00:39:24;;;;;;;7.60;3.00;;;16.00;99.90;;;;;;5072435;28;20052;-65
2022/07/16 00:41:53;;;;;;;10.70;4.15;;;16.10;99.90;;;;;;5075797;28;20190;-64
2022/07/16 00:44:19;;;;;;;7.20;3.85;;;16.00;99.90;;;;;;5077235;28;20537;-64
2022/07/16 00:46:47;;;;;;;4.28;3.80;;;16.00;99.90;;;;;;5077153;28;20036;-63
2022/07/16 00:49:14;;;;;;;6.63;3.13;;;15.90;99.90;;;;;;5077244;28;20082;-63
2022/07/16 00:51:49;;;;;;;3.55;2.97;;;15.90;99.90;;;;;;5077226;28;20440;-63
2022/07/16 00:54:16;;;;;;;6.80;2.78;;;15.80;99.90;;;;;;5077071;28;20044;-63
2022/07/16 00:56:42;;;;;;;4.10;2.03;;;15.70;99.90;;;;;;5077000;28;20127;-64
2022/07/16 00:59:08;;;;;;;3.42;1.95;;;15.80;99.90;;;;;;5076972;28;20042;-63
2022/07/16 01:01:34;;;;;;;2.67;1.55;;;15.80;99.90;;;;;;5076984;28;20115;-64
2022/07/16 01:04:03;;;;;;;2.22;1.23;;;15.60;99.90;;;;;;5076708;28;20562;-63
2022/07/16 01:06:29;;;;;;;1.83;1.00;;;15.70;99.90;;;;;;5075764;28;20044;-64
2022/07/16 01:08:56;;;;;;;2.90;1.20;;;15.70;99.90;;;;;;5076833;28;20124;-63
2022/07/16 01:11:22;;;;;;;3.35;1.40;;;15.60;99.90;;;;;;5076690;28;20044;-63
2022/07/16 01:13:50;;;;;;;5.05;1.88;;;15.70;99.90;;;;;;5076799;28;20040;-63
2022/07/16 01:16:16;;;;;;;3.00;1.17;;;15.50;99.90;;;;;;5076740;28;20121;-62
2022/07/16 01:18:42;;;;;;;5.47;1.80;;;15.70;99.90;;;;;;5076547;28;20123;-63
2022/07/16 01:21:11;;;;;;;3.55;1.30;;;15.70;99.90;;;;;;5076605;28;20051;-63
2022/07/16 01:23:37;;;;;;;2.60;1.58;;;15.60;99.90;;;;;;5076465;28;20068;-63
2022/07/16 01:26:03;;;;;;;7.10;1.73;;;15.70;99.90;;;;;;5076441;28;20391;-62
2022/07/16 01:28:29;;;;;;;6.65;2.25;;;15.60;99.90;;;;;;5076417;28;20032;-62
2022/07/16 01:30:55;;;;;;;4.45;2.35;;;15.80;99.90;;;;;;5076427;28;20043;-63
2022/07/16 01:33:31;;;;;;;6.50;2.17;;;15.70;99.90;;;;;;5076473;28;20043;-63
2022/07/16 01:36:13;;;;;;;5.32;2.80;;;15.60;99.90;;;;;;5076307;28;20036;-64
2022/07/16 01:38:41;;;;;;;5.28;2.35;;;15.60;99.90;;;;;;5076083;28;20560;-63
2022/07/16 01:41:07;;;;;;;4.13;2.65;;;15.60;99.90;;;;;;5076283;28;20040;-63
2022/07/16 01:43:33;;;;;;;6.35;2.97;;;15.80;99.90;;;;;;5076452;28;20540;-62
2022/07/16 01:45:59;;;;;;;9.35;2.10;;;15.70;99.90;;;;;;5076149;28;20044;-63
2022/07/16 01:48:26;;;;;;;8.45;2.35;;;15.60;99.90;;;;;;5076177;28;20458;-63
2022/07/16 01:50:53;;;;;;;6.15;2.60;;;15.90;99.90;;;;;;5076064;28;20032;-63
2022/07/16 01:53:19;;;;;;;6.82;2.58;;;15.70;99.90;;;;;;5076029;28;20435;-62
2022/07/16 01:55:45;;;;;;;5.43;2.42;;;15.60;99.90;;;;;;5076016;28;20124;-62
2022/07/16 01:58:12;;;;;;;4.10;1.80;;;15.60;99.90;;;;;;5075965;28;20041;-63
2022/07/16 02:00:39;;;;;;;6.00;2.00;;;15.60;99.90;;;;;;5075932;28;20102;-63
2022/07/16 02:03:05;;;;;;;9.10;2.00;;;15.60;99.90;;;;;;5075720;28;20049;-62
2022/07/16 02:05:31;;;;;;;8.60;2.83;;;15.70;99.90;;;;;;5075688;28;20036;-63
2022/07/16 02:07:57;;;;;;;4.05;1.80;;;15.60;99.90;;;;;;5075781;28;20044;-63
2022/07/16 02:10:23;;;;;;;5.45;1.65;;;15.60;99.90;;;;;;5075751;28;20367;-64
2022/07/16 02:12:48;;;;;;;5.57;2.03;;;15.80;99.90;;;;;;5075757;28;20036;-63
2022/07/16 02:15:14;;;;;;;7.90;2.30;;;15.70;99.90;;;;;;5075665;28;20039;-63
2022/07/16 02:17:41;;;;;;;7.43;2.25;;;15.70;99.90;;;;;;5075298;28;20049;-63
2022/07/16 02:20:08;;;;;;;5.50;1.70;;;15.60;99.90;;;;;;5075569;28;20064;-62
2022/07/16 02:22:34;;;;;;;6.75;1.63;;;15.50;99.90;;;;;;5075294;28;20044;-62
2022/07/16 02:25:01;;;;;;;4.45;1.58;;;15.40;99.90;;;;;;5073583;28;20044;-62
2022/07/16 02:27:27;;;;;;;4.15;1.58;;;15.40;99.90;;;;;;5073629;28;20098;-62
2022/07/16 02:29:53;;;;;;;3.85;1.48;;;15.30;99.90;;;;;;5075011;28;20044;-62
2022/07/16 02:32:18;;;;;;;5.78;1.58;;;15.40;99.90;;;;;;5075307;28;20032;-62
2022/07/16 02:34:44;;;;;;;7.63;2.20;;;15.30;99.90;;;;;;5075273;28;20064;-62
2022/07/16 02:37:10;;;;;;;5.38;2.08;;;15.30;99.90;;;;;;5075222;28;20036;-62
2022/07/16 02:39:35;;;;;;;6.03;1.80;;;15.30;99.90;;;;;;5073896;28;20550;-62
2022/07/16 02:42:01;;;;;;;4.43;1.60;;;15.20;99.90;;;;;;5075101;28;20043;-63
2022/07/16 02:44:26;;;;;;;2.42;1.45;;;15.00;99.90;;;;;;5075004;28;20123;-62
2022/07/16 02:46:52;;;;;;;6.45;1.50;;;15.00;99.90;;;;;;5074907;28;20044;-62
2022/07/16 02:49:18;;;;;;;6.13;1.55;;;15.10;99.90;;;;;;5074890;28;20051;-62
2022/07/16 02:51:43;;;;;;;5.70;1.80;;;15.10;99.90;;;;;;5074903;28;20035;-63
2022/07/16 02:54:09;;;;;;;4.55;2.00;;;14.90;99.90;;;;;;5074880;28;20045;-63
2022/07/16 02:56:35;;;;;;;5.88;1.75;;;14.90;99.90;;;;;;5074830;28;20387;-64
2022/07/16 02:59:02;;;;;;;5.53;1.85;;;14.90;99.90;;;;;;5074771;28;20045;-63
2022/07/16 03:01:27;;;;;;;5.22;1.60;;;14.90;99.90;;;;;;5074652;28;20033;-63
2022/07/16 03:03:53;;;;;;;6.97;1.70;;;15.00;99.90;;;;;;5074153;28;20036;-62
2022/07/16 03:06:18;;;;;;;6.75;2.10;;;15.00;99.90;;;;;;5072726;28;20550;-62
2022/07/16 03:08:46;;;;;;;4.53;1.98;;;15.00;99.90;;;;;;5074537;28;20036;-63
2022/07/16 03:11:11;;;;;;;8.00;1.77;;;14.80;99.90;;;;;;5074396;28;20111;-63
2022/07/16 03:13:37;;;;;;;3.60;1.92;;;14.90;99.90;;;;;;5073095;28;20138;-62
2022/07/16 03:16:03;;;;;;;7.65;1.98;;;14.80;99.90;;;;;;5074362;28;20475;-62
2022/07/16 03:18:28;;;;;;;5.57;2.00;;;14.80;99.90;;;;;;5074302;28;20112;-62
2022/07/16 03:20:54;;;;;;;6.05;2.40;;;14.80;99.90;;;;;;5074568;28;20044;-63
2022/07/16 03:23:20;;;;;;;3.25;1.65;;;14.70;99.90;;;;;;5074026;28;20056;-62
2022/07/16 03:25:46;;;;;;;6.68;1.90;;;14.60;99.90;;;;;;5074036;28;20045;-62
2022/07/16 03:28:14;;;;;;;6.18;1.70;;;14.70;99.90;;;;;;5072419;28;20040;-62
2022/07/16 03:30:40;;;;;;;9.75;2.17;;;14.60;99.90;;;;;;5074163;28;20098;-62
2022/07/16 03:33:06;;;;;;;3.53;1.85;;;14.60;99.90;;;;;;5074152;28;20044;-62
2022/07/16 03:35:32;;;;;;;4.90;2.03;;;14.60;99.90;;;;;;5074084;28;20040;-63
2022/07/16 03:40:42;;;;;;;6.25;1.83;;;14.60;99.90;;;;;;5074076;28;20068;-62
2022/07/16 03:43:07;;;;;;;5.72;2.33;;;14.50;99.90;;;;;;5074030;28;20097;-63
2022/07/16 03:45:33;;;;;;;4.68;2.00;;;14.40;99.90;;;;;;5073884;28;20117;-62
2022/07/16 03:47:59;;;;;;;8.25;2.90;;;14.60;99.90;;;;;;5072660;28;20072;-62
2022/07/16 03:50:25;;;;;;;7.50;2.10;;;14.40;99.90;;;;;;5072612;28;20402;-63
2022/07/16 03:52:50;;;;;;;7.15;1.70;;;14.50;99.90;;;;;;5073934;28;20029;-62
2022/07/16 03:55:16;;;;;;;5.05;2.63;;;14.40;99.90;;;;;;5073904;28;20119;-62
2022/07/16 03:57:42;;;;;;;4.03;2.67;;;14.50;99.90;;;;;;5073843;28;20040;-63
2022/07/16 04:00:09;;;;;;;7.00;2.65;;;14.50;99.90;;;;;;5073878;28;20029;-64
2022/07/16 04:02:35;;;;;;;8.00;2.33;;;14.40;99.90;;;;;;5073471;28;20036;-64
2022/07/16 04:05:01;;;;;;;5.82;2.40;;;14.40;99.90;;;;;;5073738;28;20036;-62
2022/07/16 04:07:27;;;;;;;6.20;2.00;;;14.40;99.90;;;;;;5074034;28;20040;-62
2022/07/16 04:09:53;;;;;;;7.75;2.45;;;14.30;99.90;;;;;;5073934;28;20041;-63
2022/07/16 04:12:24;;;;;;;6.57;2.28;;;14.30;99.90;;;;;;5073359;28;20123;-64
2022/07/16 04:14:51;;;;;;;6.65;2.47;;;14.30;99.90;;;;;;5073724;28;20043;-63
2022/07/16 04:17:17;;;;;;;4.53;2.20;;;14.30;99.90;;;;;;5077093;28;20123;-63
2022/07/16 04:19:43;;;;;;;7.20;2.30;;;14.30;99.90;;;;;;5078060;28;20075;-63
2022/07/16 04:22:08;;;;;;;9.15;2.60;;;14.40;99.90;;;;;;5075283;28;20048;-63
2022/07/16 04:24:34;;;;;;;4.60;2.42;;;14.30;99.90;;;;;;5077512;28;20045;-62
2022/07/16 04:27:00;;;;;;;7.78;2.08;;;14.50;99.90;;;;;;5076279;28;20461;-62
2022/07/16 04:29:25;;;;;;;7.43;2.20;;;14.30;99.90;;;;;;5077911;28;20379;-63
2022/07/16 04:31:51;;;;;;;7.78;2.25;;;14.40;99.90;;;;;;5077652;28;20032;-63
2022/07/16 04:34:17;;;;;;;9.55;2.28;;;14.20;99.90;;;;;;5077465;28;20036;-63
2022/07/16 04:36:44;;;;;;;6.00;1.85;;;14.30;99.90;;;;;;5077521;28;20064;-63
2022/07/16 04:39:10;;;;;;;4.82;2.08;;;14.30;99.90;;;;;;5077499;28;20043;-63
2022/07/16 04:41:35;;;;;;;9.18;2.22;;;14.40;99.90;;;;;;5075686;28;20542;-62
2022/07/16 04:44:01;;;;;;;5.55;1.73;;;14.40;99.90;;;;;;5077792;28;20040;-63
2022/07/16 04:46:27;;;;;;;4.95;1.70;;;14.40;99.90;;;;;;5075397;28;20139;-63
2022/07/16 04:48:53;;;;;;;5.22;1.65;;;14.40;99.90;;;;;;5077241;28;20051;-63
2022/07/16 04:51:18;;;;;;;10.05;1.73;;;14.40;99.90;;;;;;5077176;28;20047;-63
2022/07/16 04:53:44;;;;;;;6.97;1.73;;;14.50;99.90;;;;;;5077189;28;20041;-63
2022/07/16 04:56:09;;;;;;;6.53;1.85;;;14.60;99.90;;;;;;5076932;28;20047;-64
2022/07/16 04:58:35;;;;;;;12.48;2.58;;;14.50;99.90;;;;;;5077111;28;20044;-63
2022/07/16 05:01:01;;;;;;;6.70;1.67;;;14.60;99.90;;;;;;5076705;28;20040;-63
2022/07/16 05:03:27;;;;;;;6.15;2.22;;;14.50;99.90;;;;;;5077008;28;20048;-63
2022/07/16 05:05:52;;;;;;;8.70;2.42;;;14.60;99.90;;;;;;5077077;28;20080;-62
2022/07/16 05:08:18;;;;;;;11.02;2.00;;;14.60;99.90;;;;;;5076896;28;20075;-63
2022/07/16 05:10:44;;;;;;;10.75;1.52;;;14.60;99.90;;;;;;5076605;28;20033;-64
2022/07/16 05:13:13;;;;;;;5.35;1.92;;;14.60;99.90;;;;;;5076575;28;20040;-63
2022/07/16 05:15:39;;;;;;;4.65;1.08;;;14.60;99.90;;;;;;5076730;28;20414;-63
2022/07/16 05:18:04;;;;;;;6.63;1.58;;;14.70;99.90;;;;;;5076627;28;20119;-62
2022/07/16 05:20:30;;;;;;;4.22;1.40;;;14.70;99.90;;;;;;5076747;28;20044;-63
2022/07/16 05:22:56;;;;;;;8.88;1.77;;;14.70;99.90;;;;;;5058364;28;20080;-62
2022/07/16 05:25:22;;;;;;;6.20;1.63;;;14.70;99.90;;;;;;5076507;28;20429;-63
2022/07/16 05:27:48;;;;;;;4.38;1.20;;;14.90;99.90;;;;;;5076066;28;20044;-63
2022/07/16 05:30:14;;;;;;;7.78;1.33;;;14.90;99.90;;;;;;5076239;28;20029;-64
2022/07/16 05:32:42;;;;;;;5.28;1.27;;;15.00;99.90;;;;;;5075975;28;20032;-63
2022/07/16 05:35:09;;;;;;;8.73;1.63;;;15.00;99.90;;;;;;5076334;28;20498;-62
2022/07/16 05:37:35;;;;;;;5.63;2.15;;;15.10;99.90;;;;;;5076341;28;20041;-63
2022/07/16 05:40:01;;;;;;;8.38;1.73;;;15.20;99.90;;;;;;5074999;28;20100;-63
2022/07/16 05:42:27;;;;;;;5.82;1.77;;;15.20;99.90;;;;;;5076265;28;20056;-63
2022/07/16 05:44:53;;;;;;;5.95;1.27;;;15.20;99.90;;;;;;5058266;28;20044;-63
2022/07/16 05:47:18;;;;;;;8.05;1.80;;;15.20;99.90;;;;;;5076132;28;20040;-64
2022/07/16 05:49:44;;;;;;;7.35;1.55;;;15.30;99.90;;;;;;5076115;28;20038;-62
2022/07/16 05:52:10;;;;;;;7.57;1.05;;;15.30;99.90;;;;;;5075990;28;20118;-64
2022/07/16 05:54:35;;;;;;;6.75;1.65;;;15.40;99.90;;;;;;5076053;28;20051;-63
2022/07/16 05:57:01;;;;;;;7.25;1.40;;;15.30;99.90;;;;;;5076500;28;20036;-63
2022/07/16 05:59:27;;;;;;;7.50;1.23;;;15.30;99.90;;;;;;5076003;28;20040;-63
2022/07/16 06:01:52;;;;;;;6.38;1.80;;;15.40;99.90;;;;;;5075716;28;20037;-63
2022/07/16 06:04:18;;;;;;;5.03;1.10;;;15.50;99.90;;;;;;5075810;28;20043;-63
2022/07/16 06:06:44;;;;;;;7.15;0.93;;;15.60;99.90;;;;;;5075813;28;20064;-63
2022/07/16 06:09:09;;;;;;;8.05;1.10;;;15.70;99.90;;;;;;5075672;28;20032;-64
2022/07/16 06:11:35;;;;;;;7.15;1.33;;;15.80;99.90;;;;;;5075525;28;20086;-63
2022/07/16 06:14:00;;;;;;;5.10;0.90;;;15.80;99.90;;;;;;5057645;28;20075;-63
2022/07/16 06:16:27;;;;;;;7.75;1.50;;;15.90;99.90;;;;;;5075476;28;20069;-63
2022/07/16 06:18:53;;;;;;;7.55;1.30;;;16.00;99.90;;;;;;5075669;28;20081;-63
2022/07/16 06:21:18;;;;;;;7.45;1.10;;;16.00;99.90;;;;;;5074251;28;20044;-63
2022/07/16 06:23:44;;;;;;;3.72;1.20;;;16.20;99.90;;;;;;5075067;28;20087;-64
2022/07/16 06:26:10;;;;;;;3.67;1.00;;;16.30;99.90;;;;;;5075375;28;20045;-64
2022/07/16 06:28:35;;;;;;;8.48;1.42;;;16.40;99.90;;;;;;5075390;28;20039;-63
2022/07/16 06:31:01;;;;;;;5.15;0.98;;;16.40;99.90;;;;;;5075595;28;20512;-64
2022/07/16 06:33:26;;;;;;;5.50;1.15;;;16.60;99.90;;;;;;5075342;28;20040;-63
2022/07/16 06:35:52;;;;;;;5.00;0.73;;;16.60;99.90;;;;;;5075266;28;20130;-62
2022/07/16 06:38:18;;;;;;;6.40;0.93;;;16.80;99.90;;;;;;5074157;28;20043;-63
2022/07/16 06:40:44;;;;;;;4.35;1.00;;;17.00;99.90;;;;;;5075148;28;20036;-63
2022/07/16 06:43:10;;;;;;;2.85;0.70;;;17.20;99.90;;;;;;5075134;28;20391;-63
2022/07/16 06:45:36;;;;;;;8.13;1.15;;;17.20;99.90;;;;;;5074960;28;20036;-63
2022/07/16 06:48:02;;;;;;;7.45;1.00;;;17.40;99.90;;;;;;5075021;28;20071;-63
2022/07/16 06:50:27;;;;;;;1.83;0.50;;;17.50;99.90;;;;;;5073557;28;20041;-64
2022/07/16 06:52:53;;;;;;;4.82;0.90;;;17.50;99.90;;;;;;5074813;28;20099;-64
2022/07/16 06:55:19;;;;;;;5.97;1.15;;;17.70;99.90;;;;;;5074881;28;20040;-64
2022/07/16 06:57:45;;;;;;;9.02;1.23;;;17.90;99.90;;;;;;5073448;28;20037;-64
2022/07/16 07:00:11;;;;;;;4.90;1.25;;;17.90;99.90;;;;;;5074626;28;20028;-64
2022/07/16 07:02:37;;;;;;;3.38;0.65;;;17.80;99.90;;;;;;5074416;28;20387;-63
2022/07/16 07:05:03;;;;;;;5.38;0.90;;;17.90;99.90;;;;;;5074550;28;20037;-63
2022/07/16 07:07:29;;;;;;;7.10;1.10;;;17.60;99.90;;;;;;5074509;28;20133;-63
2022/07/16 07:09:54;;;;;;;4.55;0.80;;;17.60;99.90;;;;;;5074624;28;20489;-63
2022/07/16 07:12:20;;;;;;;4.00;0.80;;;18.00;99.90;;;;;;5074562;28;20037;-62
2022/07/16 07:14:46;;;;;;;7.22;0.93;;;18.10;99.90;;;;;;5074513;28;20072;-63
2022/07/16 07:17:11;;;;;;;6.00;0.85;;;18.40;99.90;;;;;;5074434;28;20040;-63
2022/07/16 07:19:37;;;;;;;6.25;1.02;;;18.60;99.90;;;;;;5074399;28;20037;-62
2022/07/16 07:22:02;;;;;;;4.53;1.05;;;19.00;99.90;;;;;;5074276;28;20041;-63
2022/07/16 07:24:28;;;;;;;5.65;0.98;;;19.00;99.90;;;;;;5073804;28;20159;-62
2022/07/16 07:26:55;;;;;;;4.03;1.00;;;19.10;99.90;;;;;;5074244;28;20431;-63
2022/07/16 07:29:21;;;;;;;6.53;0.95;;;19.40;99.90;;;;;;5074240;28;20079;-63
2022/07/16 07:31:46;;;;;;;7.63;1.27;;;19.60;99.90;;;;;;5074239;28;20037;-64
2022/07/16 07:34:12;;;;;;;4.97;0.93;;;19.30;99.90;;;;;;5073860;28;20037;-63
2022/07/16 07:36:38;;;;;;;2.95;1.05;;;19.00;99.90;;;;;;5074085;28;20032;-63
2022/07/16 07:39:03;;;;;;;6.53;1.30;;;18.90;99.90;;;;;;5072711;28;20036;-64
2022/07/16 07:41:29;;;;;;;6.03;0.80;;;18.80;99.90;;;;;;5074058;28;20123;-65
2022/07/16 07:43:55;;;;;;;2.78;0.70;;;18.70;99.90;;;;;;5073988;28;20040;-65
2022/07/16 07:46:20;;;;;;;4.88;1.00;;;18.90;99.90;;;;;;5073772;28;20076;-64
2022/07/16 07:48:46;;;;;;;6.15;1.35;;;18.90;99.90;;;;;;5074083;28;20037;-64
2022/07/16 07:51:12;;;;;;;3.03;0.93;;;19.20;99.90;;;;;;5073777;28;20522;-64
2022/07/16 07:53:38;;;;;;;5.95;1.17;;;19.50;99.90;;;;;;5072877;28;20036;-65
2022/07/16 07:56:04;;;;;;;5.97;1.02;;;19.20;99.90;;;;;;5070147;28;20045;-65
2022/07/16 07:58:30;;;;;;;6.93;1.00;;;19.30;99.90;;;;;;5065399;28;20561;-64
2022/07/16 08:00:55;;;;;;;5.63;1.05;;;19.30;99.90;;;;;;5064154;28;20032;-64
2022/07/16 08:03:21;;;;;;;6.03;1.15;;;19.10;99.90;;;;;;5053767;28;20574;-64
2022/07/16 08:05:47;;;;;;;8.02;1.25;;;19.00;99.90;;;;;;5053537;28;20044;-65
2022/07/16 08:08:13;;;;;;;6.50;1.13;;;19.00;99.90;;;;;;5070392;28;20040;-65
2022/07/16 08:10:39;;;;;;;5.32;1.20;;;18.80;99.90;;;;;;5054039;28;20044;-65
2022/07/16 08:13:05;;;;;;;3.03;0.93;;;18.70;99.90;;;;;;5058820;28;20363;-65
2022/07/16 08:15:31;;;;;;;8.15;1.58;;;18.70;99.90;;;;;;5069266;28;20040;-65
2022/07/16 08:17:56;;;;;;;8.48;1.20;;;18.80;99.90;;;;;;5072557;28;20497;-63
2022/07/16 08:20:23;;;;;;;12.57;1.40;;;19.10;99.90;;;;;;5070268;28;20032;-65
2022/07/16 08:22:48;;;;;;;6.05;0.88;;;19.10;99.90;;;;;;5055405;28;20145;-64
2022/07/16 08:27:59;;;;;;;5.03;1.10;;;19.70;99.90;;;;;;5069453;28;20037;-64
2022/07/16 08:30:24;;;;;;;6.90;0.90;;;19.70;99.90;;;;;;5074017;28;20387;-64
2022/07/16 08:32:50;;;;;;;5.88;1.23;;;19.50;99.90;;;;;;5072849;28;20070;-63
2022/07/16 08:35:16;;;;;;;7.70;1.40;;;19.20;99.90;;;;;;5073521;28;20457;-64
2022/07/16 08:37:45;;;;;;;6.32;1.00;;;18.90;99.90;;;;;;5053858;28;20045;-64
2022/07/16 08:40:14;;;;;;;4.13;1.63;;;18.80;99.90;;;;;;5052647;28;20127;-65
2022/07/16 08:42:40;;;;;;;8.00;1.48;;;18.60;99.90;;;;;;5062692;28;20037;-64
2022/07/16 08:45:08;;;;;;;5.03;0.88;;;18.60;99.90;;;;;;5073467;28;20102;-65
2022/07/16 08:47:34;;;;;;;6.78;1.13;;;18.70;99.90;;;;;;5072633;28;20036;-65
2022/07/16 08:50:03;;;;;;;5.50;1.35;;;18.80;99.90;;;;;;5071954;28;20041;-64
2022/07/16 08:52:30;;;;;;;5.93;1.13;;;18.70;99.90;;;;;;5072687;28;20055;-64
2022/07/16 08:54:57;;;;;;;3.47;0.90;;;18.70;99.90;;;;;;5073720;28;20040;-66
2022/07/16 08:57:24;;;;;;;6.90;1.00;;;18.90;99.90;;;;;;5073317;28;20170;-66
2022/07/16 08:59:53;;;;;;;8.07;1.05;;;18.90;99.90;;;;;;5073079;28;20462;-67
2022/07/16 09:02:19;;;;;;;8.43;1.33;;;18.80;99.90;;;;;;5073325;28;20060;-64
2022/07/16 09:04:46;;;;;;;8.18;1.33;;;18.80;99.90;;;;;;5075409;28;20040;-66
2022/07/16 09:07:13;;;;;;;7.35;1.02;;;19.00;99.90;;;;;;5077285;28;20122;-63
2022/07/16 09:09:39;;;;;;;4.15;1.23;;;19.90;99.90;;;;;;5076772;28;20040;-63
2022/07/16 09:12:05;;;;;;;7.43;0.90;;;20.60;99.90;;;;;;5077256;28;20040;-61
2022/07/16 09:14:31;;;;;;;7.40;1.13;;;20.80;99.90;;;;;;5075400;28;20033;-62
2022/07/16 09:16:57;;;;;;;4.70;1.15;;;21.90;99.90;;;;;;5076835;28;20036;-61
2022/07/16 09:19:25;;;;;;;3.88;0.80;;;22.10;99.90;;;;;;5076562;28;20039;-62
2022/07/16 09:22:09;;;;;;;2.35;1.08;;;21.70;99.90;;;;;;5075310;28;20051;-62
2022/07/16 09:24:48;;;;;;;8.27;1.10;;;21.90;99.90;;;;;;5076761;28;20044;-61
2022/07/16 09:27:24;;;;;;;7.37;0.90;;;21.10;99.90;;;;;;5076808;28;20037;-61
2022/07/16 09:30:02;;;;;;;2.63;0.80;;;21.90;99.90;;;;;;5075601;28;20417;-62
2022/07/16 09:32:39;;;;;;;2.13;0.90;;;21.60;99.90;;;;;;5076869;28;20115;-62
2022/07/16 09:35:16;;;;;;;2.85;0.65;;;21.60;99.90;;;;;;5076355;28;20122;-62
2022/07/16 09:37:44;;;;;;;2.75;0.70;;;22.20;99.90;;;;;;5076429;28;20040;-61
2022/07/16 09:40:11;;;;;;;5.55;1.13;;;23.10;99.90;;;;;;5076594;28;20055;-61
2022/07/16 09:42:38;;;;;;;3.17;0.80;;;23.70;99.90;;;;;;5076586;28;20037;-63
2022/07/16 09:45:08;;;;;;;5.78;1.00;;;23.80;99.90;;;;;;5076585;28;20036;-60
2022/07/16 09:47:34;;;;;;;2.08;0.55;;;24.20;99.90;;;;;;5076542;28;20037;-62
2022/07/16 09:50:01;;;;;;;3.25;1.00;;;24.60;99.80;;;;;;5076497;28;20037;-61
2022/07/16 09:52:30;;;;;;;4.38;0.93;;;24.50;99.00;;;;;;5075398;28;20045;-61
2022/07/16 09:54:56;;;;;;;4.40;1.10;;;25.20;99.20;;;;;;5076024;28;20450;-63
2022/07/16 09:57:25;;;;;;;2.58;0.88;;;25.40;98.00;;;;;;5073512;28;20037;-62
2022/07/16 09:59:52;;;;;;;6.57;0.98;;;25.50;98.30;;;;;;5076345;28;20037;-62
2022/07/16 10:02:17;;;;;;;2.83;1.02;;;25.50;98.60;;;;;;5076368;28;20410;-63
2022/07/16 10:04:43;;;;;;;6.80;0.93;;;25.20;98.80;;;;;;5075475;28;20040;-62
2022/07/16 10:07:09;;;;;;;5.95;0.80;;;24.60;97.90;;;;;;5075775;28;20036;-62
2022/07/16 10:09:34;;;;;;;4.65;1.10;;;24.40;98.60;;;;;;5076007;28;20414;-63
2022/07/16 10:12:12;;;;;;;3.78;0.80;;;24.90;98.50;;;;;;5076033;28;20481;-63
2022/07/16 10:14:42;;;;;;;3.78;1.27;;;24.10;97.60;;;;;;5073665;28;20158;-63
2022/07/16 10:17:18;;;;;;;4.05;0.90;;;23.90;98.40;;;;;;5076140;28;20595;-62
2022/07/16 10:19:45;;;;;;;3.10;0.90;;;23.80;98.70;;;;;;5074299;28;20047;-62
2022/07/16 10:22:13;;;;;;;5.70;1.10;;;23.80;97.00;;;;;;5075716;28;20041;-63
2022/07/16 10:24:52;;;;;;;4.07;1.15;;;23.30;98.70;;;;;;5075639;28;20060;-63
2022/07/16 10:27:19;;;;;;;;;;;23.00;99.20;;;;;;5076419;28;20044;-63
2022/07/16 10:29:45;;;;;;;4.88;1.27;;;22.70;99.30;;;;;;5075259;28;20318;-64
2022/07/16 10:32:29;;;;;;;5.38;1.17;;;22.80;99.90;;;;;;5075450;28;20039;-63
2022/07/16 10:34:59;;;;;;;3.75;0.85;;;22.70;99.90;;;;;;5074294;28;20440;-62
2022/07/16 10:37:33;;;;;;;3.53;1.00;;;23.00;99.90;;;;;;5075619;28;20047;-63
2022/07/16 10:40:10;;;;;;;6.35;1.17;;;22.90;99.80;;;;;;5075654;28;20055;-63
2022/07/16 10:42:35;;;;;;;3.33;1.35;;;22.90;99.90;;;;;;5075262;28;20384;-62
2022/07/16 10:45:02;;;;;;;3.92;0.90;;;22.80;99.70;;;;;;5075276;28;20071;-63
2022/07/16 10:47:48;;;;;;;3.10;1.00;;;23.20;99.60;;;;;;5075364;28;20037;-63
2022/07/16 10:50:17;;;;;;;7.25;1.08;;;24.40;98.80;;;;;;5075482;28;20085;-61
2022/07/16 10:52:46;;;;;;;3.08;0.90;;;23.80;99.00;;;;;;5075053;28;20040;-62
2022/07/16 10:55:28;;;;;;;5.00;0.70;;;23.30;99.50;;;;;;5074534;28;20037;-63
2022/07/16 10:57:55;;;;;;;5.88;1.25;;;23.20;99.90;;;;;;5075221;28;20143;-63
2022/07/16 11:00:20;;;;;;;5.68;0.80;;;22.90;99.90;;;;;;5075078;28;20514;-62
2022/07/16 11:02:47;;;;;;;8.13;1.60;;;23.20;99.90;;;;;;5075244;28;20124;-63
2022/07/16 11:05:13;;;;;;;7.07;1.40;;;22.70;99.90;;;;;;5056754;28;20045;-63
2022/07/16 11:07:38;;;;;;;5.93;1.30;;;22.50;99.90;;;;;;5073345;28;20086;-63
2022/07/16 11:10:05;;;;;;;6.72;1.05;;;22.30;99.90;;;;;;5074695;28;20098;-62
2022/07/16 11:12:31;;;;;;;5.82;1.33;;;22.50;99.90;;;;;;5074755;28;20041;-62
2022/07/16 11:14:59;;;;;;;6.75;1.30;;;24.00;99.90;;;;;;5075080;28;20097;-63
2022/07/16 11:17:27;;;;;;;4.88;1.10;;;24.00;99.90;;;;;;5074876;28;20509;-64
2022/07/16 11:19:56;;;;;;;8.30;1.15;;;23.20;99.90;;;;;;5073232;28;20162;-63
2022/07/16 11:22:24;;;;;;;3.17;1.02;;;23.50;99.90;;;;;;5071778;28;20074;-63
2022/07/16 11:24:53;;;;;;;8.10;0.95;;;23.80;99.90;;;;;;5072697;28;20089;-63
2022/07/16 11:27:25;;;;;;;4.80;1.30;;;24.30;99.60;;;;;;5056765;28;20048;-63
2022/07/16 11:29:58;;;;;;;3.10;0.95;;;24.80;99.30;;;;;;5074075;28;20397;-63
2022/07/16 11:32:24;;;;;;;3.95;1.17;;;25.20;99.10;;;;;;5074865;28;20072;-62
2022/07/16 11:34:49;;;;;;;5.43;1.10;;;24.70;98.00;;;;;;5074236;28;20122;-63
2022/07/16 11:37:15;;;;;;;6.05;1.33;;;24.80;98.30;;;;;;5074128;28;20040;-62
2022/07/16 11:39:41;;;;;;;6.75;1.00;;;24.50;98.80;;;;;;5073814;28;20540;-63
2022/07/16 11:42:07;;;;;;;5.30;1.30;;;25.00;98.70;;;;;;5074269;28;20120;-62
2022/07/16 11:44:36;;;;;;;4.72;1.40;;;24.40;98.70;;;;;;5074005;28;20072;-63
2022/07/16 11:47:05;;;;;;;;;;;24.50;98.80;;;;;;5074238;28;20036;-63
2022/07/16 11:49:45;;;;;;;6.93;1.17;;;24.20;98.60;;;;;;5073633;28;19970;-62
2022/07/16 11:52:20;;;;;;;3.58;0.82;;;23.90;98.90;;;;;;5073761;28;20048;-62
2022/07/16 11:54:47;;;;;;;10.55;1.42;;;24.00;97.60;;;;;;5073872;28;20089;-64
2022/07/16 11:57:13;;;;;;;7.93;1.25;;;24.10;98.60;;;;;;5072734;28;20123;-63
2022/07/16 11:59:48;;;;;;;3.88;1.00;;;24.10;98.90;;;;;;5073941;28;20123;-63
2022/07/16 12:02:17;;;;;;;6.65;1.15;;;23.60;99.00;;;;;;5073692;28;20495;-64
2022/07/16 12:04:46;;;;;;;6.38;1.15;;;24.30;99.20;;;;;;5073713;28;20120;-65
2022/07/16 12:07:18;;;;;;;5.65;1.27;;;24.40;99.30;;;;;;5073831;28;20376;-63
2022/07/16 12:09:46;;;;;;;4.43;0.93;;;24.40;98.90;;;;;;5074207;28;20033;-63
2022/07/16 12:12:13;;;;;;;;;;;24.10;98.80;;;;;;5074403;28;20040;-63
2022/07/16 12:14:50;;;;;;;4.93;1.30;;;24.60;98.60;;;;;;5072335;28;20367;-58
2022/07/16 12:17:21;;;;;;;3.97;1.00;;;24.80;98.20;;;;;;5073512;28;20048;-63
2022/07/16 12:20:12;;;;;;;6.90;1.73;;;24.40;98.80;;;;;;5073589;28;20040;-58
2022/07/16 12:22:57;;;;;;;3.90;0.95;;;24.90;99.00;;;;;;5073506;28;20458;-57
2022/07/16 12:25:28;;;;;;;6.15;1.33;;;25.70;97.60;;;;;;5073636;28;20040;-57
2022/07/16 12:28:09;;;;;;;4.50;1.08;;;25.20;97.20;;;;;;5073641;28;20044;-62
2022/07/16 12:30:41;;;;;;;4.85;1.10;;;24.50;97.80;;;;;;5072780;28;20044;-62
2022/07/16 12:33:15;;;;;;;7.47;1.63;;;23.90;98.80;;;;;;5073617;28;20047;-62
2022/07/16 12:35:51;;;;;;;7.97;1.10;;;23.80;99.40;;;;;;5073505;28;20182;-63
2022/07/16 12:38:45;;;;;;;7.72;1.35;;;24.60;99.70;;;;;;5076773;28;20159;-62
2022/07/16 12:41:16;;;;;;;7.25;1.10;;;25.00;99.60;;;;;;5077499;28;20044;-62
2022/07/16 12:43:42;;;;;;;5.97;1.08;;;24.70;99.10;;;;;;5077155;28;20041;-63
2022/07/16 12:46:09;;;;;;;9.10;1.55;;;24.30;98.80;;;;;;5077311;28;20045;-62
2022/07/16 12:48:46;;;;;;;3.15;0.93;;;24.40;99.00;;;;;;5077416;28;20036;-63
2022/07/16 12:51:14;;;;;;;5.00;1.27;;;24.80;99.10;;;;;;5077208;28;20384;-62
2022/07/16 12:53:40;;;;;;;5.18;1.35;;;24.90;98.40;;;;;;5077402;28;20036;-63
2022/07/16 12:58:51;;;;;;;4.55;0.95;;;25.60;98.10;;;;;;5077327;28;20051;-62